sensor_id;sensor_type;location;lat;lon;timestamp;P1;durP1;ratioP1;P2;durP2;ratioP2
49834;SDS011;35729;52.090;13.162;2022-11-20T00:01:58;25.88;;;17.65;;
49834;SDS011;35729;52.090;13.162;2022-11-20T00:04:26;27.33;;;17.40;;
49834;SDS011;35729;52.090;13.162;2022-11-20T00:06:54;27.98;;;18.27;;
49834;SDS011;35729;52.090;13.162;2022-11-20T00:09:25;26.10;;;16.58;;
49834;SDS011;35729;52.090;13.162;2022-11-20T00:11:54;28.98;;;18.45;;
49834;SDS011;35729;52.090;13.162;2022-11-20T00:14:23;23.80;;;15.52;;
49834;SDS011;35729;52.090;13.162;2022-11-20T00:16:51;27.45;;;16.45;;
49834;SDS011;35729;52.090;13.162;2022-11-20T00:19:19;28.58;;;16.98;;
49834;SDS011;35729;52.090;13.162;2022-11-20T00:21:48;26.30;;;16.42;;
49834;SDS011;35729;52.090;13.162;2022-11-20T00:24:18;28.13;;;18.40;;
49834;SDS011;35729;52.090;13.162;2022-11-20T00:26:49;29.75;;;18.70;;
49834;SDS011;35729;52.090;13.162;2022-11-20T00:29:18;29.23;;;17.92;;
49834;SDS011;35729;52.090;13.162;2022-11-20T00:31:47;28.58;;;17.45;;
49834;SDS011;35729;52.090;13.162;2022-11-20T00:34:15;28.02;;;17.95;;
49834;SDS011;35729;52.090;13.162;2022-11-20T00:36:43;30.30;;;19.17;;
49834;SDS011;35729;52.090;13.162;2022-11-20T00:39:12;28.60;;;17.33;;
49834;SDS011;35729;52.090;13.162;2022-11-20T00:41:40;28.08;;;18.00;;
49834;SDS011;35729;52.090;13.162;2022-11-20T00:44:11;27.33;;;17.15;;
49834;SDS011;35729;52.090;13.162;2022-11-20T00:46:40;28.38;;;17.63;;
49834;SDS011;35729;52.090;13.162;2022-11-20T00:49:08;25.67;;;16.58;;
49834;SDS011;35729;52.090;13.162;2022-11-20T00:51:36;26.55;;;16.85;;
49834;SDS011;35729;52.090;13.162;2022-11-20T00:54:05;26.13;;;16.48;;
49834;SDS011;35729;52.090;13.162;2022-11-20T00:56:33;27.25;;;17.10;;
49834;SDS011;35729;52.090;13.162;2022-11-20T00:59:02;27.65;;;16.20;;
49834;SDS011;35729;52.090;13.162;2022-11-20T01:01:33;24.85;;;16.92;;
49834;SDS011;35729;52.090;13.162;2022-11-20T01:04:01;24.73;;;16.40;;
49834;SDS011;35729;52.090;13.162;2022-11-20T01:06:30;25.48;;;16.60;;
49834;SDS011;35729;52.090;13.162;2022-11-20T01:09:03;24.83;;;16.00;;
49834;SDS011;35729;52.090;13.162;2022-11-20T01:11:34;25.52;;;16.23;;
49834;SDS011;35729;52.090;13.162;2022-11-20T01:14:04;25.90;;;16.67;;
49834;SDS011;35729;52.090;13.162;2022-11-20T01:16:37;26.10;;;16.23;;
49834;SDS011;35729;52.090;13.162;2022-11-20T01:19:07;22.33;;;14.75;;
49834;SDS011;35729;52.090;13.162;2022-11-20T01:21:39;24.65;;;16.92;;
49834;SDS011;35729;52.090;13.162;2022-11-20T01:24:10;22.75;;;15.60;;
49834;SDS011;35729;52.090;13.162;2022-11-20T01:26:41;20.45;;;14.93;;
49834;SDS011;35729;52.090;13.162;2022-11-20T01:29:12;24.63;;;16.55;;
49834;SDS011;35729;52.090;13.162;2022-11-20T01:31:45;22.83;;;15.93;;
49834;SDS011;35729;52.090;13.162;2022-11-20T01:34:14;25.70;;;15.90;;
49834;SDS011;35729;52.090;13.162;2022-11-20T01:36:43;24.58;;;15.55;;
49834;SDS011;35729;52.090;13.162;2022-11-20T01:39:13;21.40;;;14.80;;
49834;SDS011;35729;52.090;13.162;2022-11-20T01:41:44;23.67;;;16.05;;
49834;SDS011;35729;52.090;13.162;2022-11-20T01:44:43;25.88;;;16.38;;
49834;SDS011;35729;52.090;13.162;2022-11-20T01:47:20;23.90;;;14.80;;
49834;SDS011;35729;52.090;13.162;2022-11-20T01:49:52;25.52;;;16.35;;
49834;SDS011;35729;52.090;13.162;2022-11-20T01:52:26;22.88;;;15.23;;
49834;SDS011;35729;52.090;13.162;2022-11-20T01:54:59;26.50;;;17.05;;
49834;SDS011;35729;52.090;13.162;2022-11-20T01:57:31;27.63;;;16.70;;
49834;SDS011;35729;52.090;13.162;2022-11-20T02:00:04;23.70;;;15.68;;
49834;SDS011;35729;52.090;13.162;2022-11-20T02:02:37;26.42;;;16.48;;
49834;SDS011;35729;52.090;13.162;2022-11-20T02:05:11;26.15;;;16.98;;
49834;SDS011;35729;52.090;13.162;2022-11-20T02:07:45;25.70;;;15.88;;
49834;SDS011;35729;52.090;13.162;2022-11-20T02:10:15;23.73;;;14.90;;
49834;SDS011;35729;52.090;13.162;2022-11-20T02:12:50;19.83;;;14.02;;
49834;SDS011;35729;52.090;13.162;2022-11-20T02:15:36;21.77;;;13.50;;
49834;SDS011;35729;52.090;13.162;2022-11-20T02:18:07;22.83;;;14.38;;
49834;SDS011;35729;52.090;13.162;2022-11-20T02:20:37;22.48;;;14.70;;
49834;SDS011;35729;52.090;13.162;2022-11-20T02:23:08;21.48;;;13.88;;
49834;SDS011;35729;52.090;13.162;2022-11-20T02:25:43;26.45;;;14.45;;
49834;SDS011;35729;52.090;13.162;2022-11-20T02:28:13;22.57;;;13.93;;
49834;SDS011;35729;52.090;13.162;2022-11-20T02:30:42;24.23;;;15.00;;
49834;SDS011;35729;52.090;13.162;2022-11-20T02:33:12;23.85;;;14.73;;
49834;SDS011;35729;52.090;13.162;2022-11-20T02:35:44;26.67;;;15.60;;
49834;SDS011;35729;52.090;13.162;2022-11-20T02:38:13;23.35;;;15.43;;
49834;SDS011;35729;52.090;13.162;2022-11-20T02:40:45;25.05;;;15.50;;
49834;SDS011;35729;52.090;13.162;2022-11-20T02:43:15;24.67;;;16.17;;
49834;SDS011;35729;52.090;13.162;2022-11-20T02:45:43;23.15;;;15.90;;
49834;SDS011;35729;52.090;13.162;2022-11-20T02:48:12;22.40;;;14.98;;
49834;SDS011;35729;52.090;13.162;2022-11-20T02:50:40;25.20;;;15.32;;
49834;SDS011;35729;52.090;13.162;2022-11-20T02:53:09;25.25;;;16.00;;
49834;SDS011;35729;52.090;13.162;2022-11-20T02:55:37;23.42;;;14.93;;
49834;SDS011;35729;52.090;13.162;2022-11-20T02:58:08;23.00;;;14.18;;
49834;SDS011;35729;52.090;13.162;2022-11-20T03:00:37;27.00;;;15.73;;
49834;SDS011;35729;52.090;13.162;2022-11-20T03:03:05;23.25;;;14.85;;
49834;SDS011;35729;52.090;13.162;2022-11-20T03:05:34;24.73;;;14.40;;
49834;SDS011;35729;52.090;13.162;2022-11-20T03:08:03;26.33;;;16.27;;
49834;SDS011;35729;52.090;13.162;2022-11-20T03:10:32;26.05;;;16.73;;
49834;SDS011;35729;52.090;13.162;2022-11-20T03:13:00;24.88;;;15.98;;
49834;SDS011;35729;52.090;13.162;2022-11-20T03:15:31;26.17;;;15.50;;
49834;SDS011;35729;52.090;13.162;2022-11-20T03:18:00;25.05;;;16.90;;
49834;SDS011;35729;52.090;13.162;2022-11-20T03:20:28;27.30;;;15.88;;
49834;SDS011;35729;52.090;13.162;2022-11-20T03:22:57;26.42;;;16.40;;
49834;SDS011;35729;52.090;13.162;2022-11-20T03:25:25;26.42;;;16.02;;
49834;SDS011;35729;52.090;13.162;2022-11-20T03:27:54;25.40;;;17.08;;
49834;SDS011;35729;52.090;13.162;2022-11-20T03:30:22;27.80;;;16.88;;
49834;SDS011;35729;52.090;13.162;2022-11-20T03:32:55;23.92;;;15.25;;
49834;SDS011;35729;52.090;13.162;2022-11-20T03:35:23;28.33;;;17.67;;
49834;SDS011;35729;52.090;13.162;2022-11-20T03:37:51;26.25;;;16.33;;
49834;SDS011;35729;52.090;13.162;2022-11-20T03:40:20;27.55;;;17.05;;
49834;SDS011;35729;52.090;13.162;2022-11-20T03:42:48;25.10;;;16.25;;
49834;SDS011;35729;52.090;13.162;2022-11-20T03:45:17;24.65;;;15.82;;
49834;SDS011;35729;52.090;13.162;2022-11-20T03:47:46;30.65;;;17.13;;
49834;SDS011;35729;52.090;13.162;2022-11-20T03:50:17;25.60;;;15.38;;
49834;SDS011;35729;52.090;13.162;2022-11-20T03:52:45;26.23;;;16.17;;
49834;SDS011;35729;52.090;13.162;2022-11-20T03:55:14;25.20;;;15.05;;
49834;SDS011;35729;52.090;13.162;2022-11-20T03:57:42;23.80;;;15.77;;
49834;SDS011;35729;52.090;13.162;2022-11-20T04:00:11;25.35;;;15.40;;
49834;SDS011;35729;52.090;13.162;2022-11-20T04:02:41;25.05;;;15.55;;
49834;SDS011;35729;52.090;13.162;2022-11-20T04:05:09;26.23;;;15.63;;
49834;SDS011;35729;52.090;13.162;2022-11-20T04:07:40;24.58;;;14.02;;
49834;SDS011;35729;52.090;13.162;2022-11-20T04:10:09;25.92;;;16.33;;
49834;SDS011;35729;52.090;13.162;2022-11-20T04:12:37;26.45;;;15.60;;
49834;SDS011;35729;52.090;13.162;2022-11-20T04:15:06;24.65;;;15.25;;
49834;SDS011;35729;52.090;13.162;2022-11-20T04:17:35;24.77;;;15.38;;
49834;SDS011;35729;52.090;13.162;2022-11-20T04:20:04;22.25;;;14.77;;
49834;SDS011;35729;52.090;13.162;2022-11-20T04:22:33;25.05;;;15.15;;
49834;SDS011;35729;52.090;13.162;2022-11-20T04:25:05;26.40;;;14.68;;
49834;SDS011;35729;52.090;13.162;2022-11-20T04:27:34;21.45;;;14.98;;
49834;SDS011;35729;52.090;13.162;2022-11-20T04:30:02;32.58;;;21.13;;
49834;SDS011;35729;52.090;13.162;2022-11-20T04:32:31;27.25;;;14.77;;
49834;SDS011;35729;52.090;13.162;2022-11-20T04:35:00;22.25;;;14.05;;
49834;SDS011;35729;52.090;13.162;2022-11-20T04:37:28;22.88;;;14.18;;
49834;SDS011;35729;52.090;13.162;2022-11-20T04:39:57;20.00;;;13.60;;
49834;SDS011;35729;52.090;13.162;2022-11-20T04:42:28;19.70;;;13.68;;
49834;SDS011;35729;52.090;13.162;2022-11-20T04:44:56;22.83;;;13.93;;
49834;SDS011;35729;52.090;13.162;2022-11-20T04:47:25;22.88;;;13.85;;
49834;SDS011;35729;52.090;13.162;2022-11-20T04:49:53;20.10;;;13.65;;
49834;SDS011;35729;52.090;13.162;2022-11-20T04:52:22;22.52;;;13.68;;
49834;SDS011;35729;52.090;13.162;2022-11-20T04:54:50;21.55;;;15.38;;
49834;SDS011;35729;52.090;13.162;2022-11-20T04:57:20;21.55;;;13.90;;
49834;SDS011;35729;52.090;13.162;2022-11-20T04:59:51;23.50;;;16.05;;
49834;SDS011;35729;52.090;13.162;2022-11-20T05:02:26;25.63;;;15.80;;
49834;SDS011;35729;52.090;13.162;2022-11-20T05:04:55;23.30;;;14.93;;
49834;SDS011;35729;52.090;13.162;2022-11-20T05:07:23;21.88;;;13.50;;
49834;SDS011;35729;52.090;13.162;2022-11-20T05:09:52;24.25;;;15.15;;
49834;SDS011;35729;52.090;13.162;2022-11-20T05:12:20;23.17;;;14.27;;
49834;SDS011;35729;52.090;13.162;2022-11-20T05:14:51;23.88;;;14.35;;
49834;SDS011;35729;52.090;13.162;2022-11-20T05:17:20;23.83;;;14.48;;
49834;SDS011;35729;52.090;13.162;2022-11-20T05:19:48;21.65;;;14.27;;
49834;SDS011;35729;52.090;13.162;2022-11-20T05:22:17;20.83;;;13.07;;
49834;SDS011;35729;52.090;13.162;2022-11-20T05:24:45;22.23;;;14.25;;
49834;SDS011;35729;52.090;13.162;2022-11-20T05:27:20;26.20;;;14.52;;
49834;SDS011;35729;52.090;13.162;2022-11-20T05:29:51;22.35;;;13.95;;
49834;SDS011;35729;52.090;13.162;2022-11-20T05:32:20;21.55;;;14.80;;
49834;SDS011;35729;52.090;13.162;2022-11-20T05:34:50;20.85;;;13.43;;
49834;SDS011;35729;52.090;13.162;2022-11-20T05:37:18;21.90;;;14.95;;
49834;SDS011;35729;52.090;13.162;2022-11-20T05:39:47;21.38;;;13.90;;
49834;SDS011;35729;52.090;13.162;2022-11-20T05:42:15;24.02;;;13.95;;
49834;SDS011;35729;52.090;13.162;2022-11-20T05:45:02;20.17;;;14.50;;
49834;SDS011;35729;52.090;13.162;2022-11-20T05:47:32;18.48;;;12.82;;
49834;SDS011;35729;52.090;13.162;2022-11-20T05:50:01;19.23;;;13.43;;
49834;SDS011;35729;52.090;13.162;2022-11-20T05:52:30;18.25;;;13.13;;
49834;SDS011;35729;52.090;13.162;2022-11-20T05:54:59;23.30;;;14.20;;
49834;SDS011;35729;52.090;13.162;2022-11-20T05:57:27;20.33;;;13.98;;
49834;SDS011;35729;52.090;13.162;2022-11-20T05:59:55;20.50;;;13.60;;
49834;SDS011;35729;52.090;13.162;2022-11-20T06:02:26;20.20;;;13.27;;
49834;SDS011;35729;52.090;13.162;2022-11-20T06:04:55;19.83;;;13.75;;
49834;SDS011;35729;52.090;13.162;2022-11-20T06:07:23;22.10;;;14.90;;
49834;SDS011;35729;52.090;13.162;2022-11-20T06:09:52;24.67;;;16.60;;
49834;SDS011;35729;52.090;13.162;2022-11-20T06:12:20;23.13;;;14.90;;
49834;SDS011;35729;52.090;13.162;2022-11-20T06:14:49;21.88;;;14.25;;
49834;SDS011;35729;52.090;13.162;2022-11-20T06:17:17;24.48;;;14.63;;
49834;SDS011;35729;52.090;13.162;2022-11-20T06:19:48;23.90;;;14.32;;
49834;SDS011;35729;52.090;13.162;2022-11-20T06:22:17;23.05;;;15.25;;
49834;SDS011;35729;52.090;13.162;2022-11-20T06:24:45;22.52;;;14.35;;
49834;SDS011;35729;52.090;13.162;2022-11-20T06:27:14;23.95;;;15.13;;
49834;SDS011;35729;52.090;13.162;2022-11-20T06:29:42;23.52;;;15.32;;
49834;SDS011;35729;52.090;13.162;2022-11-20T06:32:11;24.02;;;16.08;;
49834;SDS011;35729;52.090;13.162;2022-11-20T06:34:39;23.85;;;15.25;;
49834;SDS011;35729;52.090;13.162;2022-11-20T06:37:10;22.38;;;15.85;;
49834;SDS011;35729;52.090;13.162;2022-11-20T06:39:38;23.75;;;16.38;;
49834;SDS011;35729;52.090;13.162;2022-11-20T06:42:07;27.23;;;17.35;;
49834;SDS011;35729;52.090;13.162;2022-11-20T06:44:35;25.23;;;16.38;;
49834;SDS011;35729;52.090;13.162;2022-11-20T06:47:04;22.80;;;15.55;;
49834;SDS011;35729;52.090;13.162;2022-11-20T06:49:32;26.30;;;15.55;;
49834;SDS011;35729;52.090;13.162;2022-11-20T06:52:02;27.23;;;17.30;;
49834;SDS011;35729;52.090;13.162;2022-11-20T06:54:33;24.40;;;15.68;;
49834;SDS011;35729;52.090;13.162;2022-11-20T06:57:01;24.13;;;15.38;;
49834;SDS011;35729;52.090;13.162;2022-11-20T06:59:30;24.27;;;16.60;;
49834;SDS011;35729;52.090;13.162;2022-11-20T07:01:58;24.30;;;15.65;;
49834;SDS011;35729;52.090;13.162;2022-11-20T07:04:27;25.75;;;16.73;;
49834;SDS011;35729;52.090;13.162;2022-11-20T07:06:55;28.38;;;17.55;;
49834;SDS011;35729;52.090;13.162;2022-11-20T07:09:24;27.67;;;17.00;;
49834;SDS011;35729;52.090;13.162;2022-11-20T07:11:55;25.38;;;16.85;;
49834;SDS011;35729;52.090;13.162;2022-11-20T07:14:23;27.45;;;16.98;;
49834;SDS011;35729;52.090;13.162;2022-11-20T07:16:52;25.67;;;16.08;;
49834;SDS011;35729;52.090;13.162;2022-11-20T07:19:20;25.73;;;17.20;;
49834;SDS011;35729;52.090;13.162;2022-11-20T07:21:49;29.10;;;17.52;;
49834;SDS011;35729;52.090;13.162;2022-11-20T07:24:17;30.27;;;17.42;;
49834;SDS011;35729;52.090;13.162;2022-11-20T07:26:46;29.75;;;17.98;;
49834;SDS011;35729;52.090;13.162;2022-11-20T07:29:17;29.05;;;17.08;;
49834;SDS011;35729;52.090;13.162;2022-11-20T07:31:45;30.25;;;18.42;;
49834;SDS011;35729;52.090;13.162;2022-11-20T07:34:14;29.52;;;18.63;;
49834;SDS011;35729;52.090;13.162;2022-11-20T07:36:42;26.63;;;17.38;;
49834;SDS011;35729;52.090;13.162;2022-11-20T07:39:11;26.92;;;17.63;;
49834;SDS011;35729;52.090;13.162;2022-11-20T07:41:39;28.23;;;18.77;;
49834;SDS011;35729;52.090;13.162;2022-11-20T07:44:08;31.67;;;19.58;;
49834;SDS011;35729;52.090;13.162;2022-11-20T07:46:39;30.48;;;20.23;;
49834;SDS011;35729;52.090;13.162;2022-11-20T07:49:07;27.92;;;18.73;;
49834;SDS011;35729;52.090;13.162;2022-11-20T07:51:36;32.00;;;19.15;;
49834;SDS011;35729;52.090;13.162;2022-11-20T07:54:04;31.65;;;18.00;;
49834;SDS011;35729;52.090;13.162;2022-11-20T07:56:33;29.52;;;18.85;;
49834;SDS011;35729;52.090;13.162;2022-11-20T07:59:01;32.15;;;19.65;;
49834;SDS011;35729;52.090;13.162;2022-11-20T08:01:31;26.33;;;17.77;;
49834;SDS011;35729;52.090;13.162;2022-11-20T08:04:02;27.35;;;17.90;;
49834;SDS011;35729;52.090;13.162;2022-11-20T08:06:30;31.23;;;19.67;;
49834;SDS011;35729;52.090;13.162;2022-11-20T08:08:59;31.30;;;19.85;;
49834;SDS011;35729;52.090;13.162;2022-11-20T08:11:27;32.00;;;20.27;;
49834;SDS011;35729;52.090;13.162;2022-11-20T08:14:08;32.55;;;19.83;;
49834;SDS011;35729;52.090;13.162;2022-11-20T08:16:40;32.85;;;19.73;;
49834;SDS011;35729;52.090;13.162;2022-11-20T08:19:13;32.85;;;19.23;;
49834;SDS011;35729;52.090;13.162;2022-11-20T08:21:42;32.08;;;19.55;;
49834;SDS011;35729;52.090;13.162;2022-11-20T08:24:11;32.65;;;20.42;;
49834;SDS011;35729;52.090;13.162;2022-11-20T08:26:39;33.38;;;20.10;;
49834;SDS011;35729;52.090;13.162;2022-11-20T08:29:08;32.40;;;20.13;;
49834;SDS011;35729;52.090;13.162;2022-11-20T08:31:36;31.77;;;19.75;;
49834;SDS011;35729;52.090;13.162;2022-11-20T08:34:05;36.53;;;20.92;;
49834;SDS011;35729;52.090;13.162;2022-11-20T08:36:36;31.05;;;19.80;;
49834;SDS011;35729;52.090;13.162;2022-11-20T08:39:04;32.65;;;20.02;;
49834;SDS011;35729;52.090;13.162;2022-11-20T08:41:33;30.60;;;19.10;;
49834;SDS011;35729;52.090;13.162;2022-11-20T08:44:02;32.90;;;20.83;;
49834;SDS011;35729;52.090;13.162;2022-11-20T08:46:33;33.33;;;20.42;;
49834;SDS011;35729;52.090;13.162;2022-11-20T08:49:02;32.15;;;20.10;;
49834;SDS011;35729;52.090;13.162;2022-11-20T08:51:31;33.90;;;21.55;;
49834;SDS011;35729;52.090;13.162;2022-11-20T08:54:03;33.55;;;20.08;;
49834;SDS011;35729;52.090;13.162;2022-11-20T08:56:32;30.92;;;19.08;;
49834;SDS011;35729;52.090;13.162;2022-11-20T08:59:01;31.02;;;20.02;;
49834;SDS011;35729;52.090;13.162;2022-11-20T09:01:29;33.53;;;20.30;;
49834;SDS011;35729;52.090;13.162;2022-11-20T09:03:58;32.20;;;19.83;;
49834;SDS011;35729;52.090;13.162;2022-11-20T09:06:26;30.17;;;18.98;;
49834;SDS011;35729;52.090;13.162;2022-11-20T09:08:54;31.98;;;19.27;;
49834;SDS011;35729;52.090;13.162;2022-11-20T09:11:26;30.67;;;19.80;;
49834;SDS011;35729;52.090;13.162;2022-11-20T09:13:54;33.70;;;19.52;;
49834;SDS011;35729;52.090;13.162;2022-11-20T09:16:23;37.90;;;22.10;;
49834;SDS011;35729;52.090;13.162;2022-11-20T09:18:51;38.60;;;22.83;;
49834;SDS011;35729;52.090;13.162;2022-11-20T09:21:20;36.60;;;21.88;;
49834;SDS011;35729;52.090;13.162;2022-11-20T09:23:48;38.50;;;22.20;;
49834;SDS011;35729;52.090;13.162;2022-11-20T09:26:17;37.60;;;22.00;;
49834;SDS011;35729;52.090;13.162;2022-11-20T09:28:48;34.17;;;20.30;;
49834;SDS011;35729;52.090;13.162;2022-11-20T09:31:19;36.65;;;22.20;;
49834;SDS011;35729;52.090;13.162;2022-11-20T09:33:51;35.85;;;21.05;;
49834;SDS011;35729;52.090;13.162;2022-11-20T09:36:19;37.35;;;22.40;;
49834;SDS011;35729;52.090;13.162;2022-11-20T09:38:48;34.38;;;20.08;;
49834;SDS011;35729;52.090;13.162;2022-11-20T09:41:29;40.28;;;23.88;;
49834;SDS011;35729;52.090;13.162;2022-11-20T09:44:17;33.87;;;19.73;;
49834;SDS011;35729;52.090;13.162;2022-11-20T09:47:00;32.75;;;18.60;;
49834;SDS011;35729;52.090;13.162;2022-11-20T09:49:35;27.67;;;18.35;;
49834;SDS011;35729;52.090;13.162;2022-11-20T09:52:21;30.88;;;18.35;;
49834;SDS011;35729;52.090;13.162;2022-11-20T09:54:56;29.73;;;17.88;;
49834;SDS011;35729;52.090;13.162;2022-11-20T09:57:25;27.20;;;16.95;;
49834;SDS011;35729;52.090;13.162;2022-11-20T10:00:04;28.30;;;17.75;;
49834;SDS011;35729;52.090;13.162;2022-11-20T10:02:40;26.95;;;16.63;;
49834;SDS011;35729;52.090;13.162;2022-11-20T10:05:18;26.35;;;16.77;;
49834;SDS011;35729;52.090;13.162;2022-11-20T10:07:51;27.77;;;17.92;;
49834;SDS011;35729;52.090;13.162;2022-11-20T10:10:28;22.75;;;15.98;;
49834;SDS011;35729;52.090;13.162;2022-11-20T10:13:05;23.90;;;16.90;;
49834;SDS011;35729;52.090;13.162;2022-11-20T10:15:50;25.90;;;16.17;;
49834;SDS011;35729;52.090;13.162;2022-11-20T10:18:35;29.35;;;17.15;;
49834;SDS011;35729;52.090;13.162;2022-11-20T10:21:18;26.95;;;17.27;;
49834;SDS011;35729;52.090;13.162;2022-11-20T10:24:00;26.48;;;15.80;;
49834;SDS011;35729;52.090;13.162;2022-11-20T10:26:43;25.33;;;15.50;;
49834;SDS011;35729;52.090;13.162;2022-11-20T10:29:18;29.33;;;16.98;;
49834;SDS011;35729;52.090;13.162;2022-11-20T10:31:54;24.55;;;15.57;;
49834;SDS011;35729;52.090;13.162;2022-11-20T10:34:29;24.85;;;16.02;;
49834;SDS011;35729;52.090;13.162;2022-11-20T10:37:02;28.80;;;17.52;;
49834;SDS011;35729;52.090;13.162;2022-11-20T10:39:39;26.35;;;16.92;;
49834;SDS011;35729;52.090;13.162;2022-11-20T10:42:14;22.33;;;14.00;;
49834;SDS011;35729;52.090;13.162;2022-11-20T10:44:49;23.35;;;13.82;;
49834;SDS011;35729;52.090;13.162;2022-11-20T10:47:31;21.73;;;14.60;;
49834;SDS011;35729;52.090;13.162;2022-11-20T10:50:01;27.63;;;15.68;;
49834;SDS011;35729;52.090;13.162;2022-11-20T10:52:36;20.55;;;13.95;;
49834;SDS011;35729;52.090;13.162;2022-11-20T10:55:19;21.83;;;13.68;;
49834;SDS011;35729;52.090;13.162;2022-11-20T10:57:59;23.35;;;14.65;;
49834;SDS011;35729;52.090;13.162;2022-11-20T11:00:32;18.40;;;13.23;;
49834;SDS011;35729;52.090;13.162;2022-11-20T11:03:07;21.77;;;13.32;;
49834;SDS011;35729;52.090;13.162;2022-11-20T11:05:48;17.75;;;12.35;;
49834;SDS011;35729;52.090;13.162;2022-11-20T11:08:21;17.20;;;12.68;;
49834;SDS011;35729;52.090;13.162;2022-11-20T11:10:51;17.65;;;12.45;;
49834;SDS011;35729;52.090;13.162;2022-11-20T11:13:23;18.55;;;12.23;;
49834;SDS011;35729;52.090;13.162;2022-11-20T11:15:53;19.15;;;12.88;;
49834;SDS011;35729;52.090;13.162;2022-11-20T11:18:25;18.30;;;12.60;;
49834;SDS011;35729;52.090;13.162;2022-11-20T11:20:55;36.55;;;16.60;;
49834;SDS011;35729;52.090;13.162;2022-11-20T11:23:31;40.70;;;17.02;;
49834;SDS011;35729;52.090;13.162;2022-11-20T11:26:18;26.08;;;15.85;;
49834;SDS011;35729;52.090;13.162;2022-11-20T11:28:52;25.90;;;15.88;;
49834;SDS011;35729;52.090;13.162;2022-11-20T11:31:23;20.10;;;13.82;;
49834;SDS011;35729;52.090;13.162;2022-11-20T11:34:02;21.08;;;13.98;;
49834;SDS011;35729;52.090;13.162;2022-11-20T11:36:32;27.40;;;16.85;;
49834;SDS011;35729;52.090;13.162;2022-11-20T11:39:02;21.05;;;13.82;;
49834;SDS011;35729;52.090;13.162;2022-11-20T11:41:33;23.77;;;14.80;;
49834;SDS011;35729;52.090;13.162;2022-11-20T11:44:12;24.48;;;14.45;;
49834;SDS011;35729;52.090;13.162;2022-11-20T11:47:04;22.25;;;15.02;;
49834;SDS011;35729;52.090;13.162;2022-11-20T11:50:07;24.13;;;14.43;;
49834;SDS011;35729;52.090;13.162;2022-11-20T11:52:44;19.60;;;12.65;;
49834;SDS011;35729;52.090;13.162;2022-11-20T11:55:18;21.02;;;14.05;;
49834;SDS011;35729;52.090;13.162;2022-11-20T11:57:54;18.52;;;12.00;;
49834;SDS011;35729;52.090;13.162;2022-11-20T12:00:33;20.45;;;13.07;;
49834;SDS011;35729;52.090;13.162;2022-11-20T12:03:04;22.13;;;14.00;;
49834;SDS011;35729;52.090;13.162;2022-11-20T12:05:44;22.63;;;13.02;;
49834;SDS011;35729;52.090;13.162;2022-11-20T12:08:17;21.63;;;14.27;;
49834;SDS011;35729;52.090;13.162;2022-11-20T12:10:53;22.67;;;14.45;;
49834;SDS011;35729;52.090;13.162;2022-11-20T12:13:30;19.88;;;13.63;;
49834;SDS011;35729;52.090;13.162;2022-11-20T12:16:09;20.95;;;14.50;;
49834;SDS011;35729;52.090;13.162;2022-11-20T12:18:39;21.08;;;14.02;;
49834;SDS011;35729;52.090;13.162;2022-11-20T12:21:17;22.15;;;14.43;;
49834;SDS011;35729;52.090;13.162;2022-11-20T12:23:53;19.88;;;13.23;;
49834;SDS011;35729;52.090;13.162;2022-11-20T12:26:34;17.67;;;12.18;;
49834;SDS011;35729;52.090;13.162;2022-11-20T12:29:18;22.67;;;13.77;;
49834;SDS011;35729;52.090;13.162;2022-11-20T12:32:04;17.67;;;10.80;;
49834;SDS011;35729;52.090;13.162;2022-11-20T12:35:00;19.27;;;12.52;;
49834;SDS011;35729;52.090;13.162;2022-11-20T12:37:37;17.35;;;11.52;;
49834;SDS011;35729;52.090;13.162;2022-11-20T12:40:27;18.85;;;11.32;;
49834;SDS011;35729;52.090;13.162;2022-11-20T12:43:05;17.08;;;11.15;;
49834;SDS011;35729;52.090;13.162;2022-11-20T12:46:00;20.25;;;12.23;;
49834;SDS011;35729;52.090;13.162;2022-11-20T12:48:41;17.05;;;11.68;;
49834;SDS011;35729;52.090;13.162;2022-11-20T12:57:24;18.77;;;12.05;;
49834;SDS011;35729;52.090;13.162;2022-11-20T13:00:02;17.75;;;11.02;;
49834;SDS011;35729;52.090;13.162;2022-11-20T13:02:43;16.05;;;11.27;;
49834;SDS011;35729;52.090;13.162;2022-11-20T13:05:35;16.95;;;11.35;;
49834;SDS011;35729;52.090;13.162;2022-11-20T13:08:11;12.90;;;9.80;;
49834;SDS011;35729;52.090;13.162;2022-11-20T13:10:49;17.23;;;11.07;;
49834;SDS011;35729;52.090;13.162;2022-11-20T13:13:29;16.25;;;10.57;;
49834;SDS011;35729;52.090;13.162;2022-11-20T13:16:04;15.80;;;11.13;;
49834;SDS011;35729;52.090;13.162;2022-11-20T13:18:38;14.13;;;9.38;;
49834;SDS011;35729;52.090;13.162;2022-11-20T13:21:17;12.53;;;8.47;;
49834;SDS011;35729;52.090;13.162;2022-11-20T13:23:46;13.07;;;8.88;;
49834;SDS011;35729;52.090;13.162;2022-11-20T13:26:16;13.15;;;9.27;;
49834;SDS011;35729;52.090;13.162;2022-11-20T13:28:59;15.90;;;7.47;;
49834;SDS011;35729;52.090;13.162;2022-11-20T13:31:31;11.45;;;7.57;;
49834;SDS011;35729;52.090;13.162;2022-11-20T13:34:02;13.25;;;8.93;;
49834;SDS011;35729;52.090;13.162;2022-11-20T13:36:33;13.38;;;8.98;;
49834;SDS011;35729;52.090;13.162;2022-11-20T13:39:02;13.30;;;8.13;;
49834;SDS011;35729;52.090;13.162;2022-11-20T13:41:32;11.70;;;8.68;;
49834;SDS011;35729;52.090;13.162;2022-11-20T13:44:12;14.20;;;9.65;;
49834;SDS011;35729;52.090;13.162;2022-11-20T13:46:43;14.88;;;9.07;;
49834;SDS011;35729;52.090;13.162;2022-11-20T13:49:17;13.18;;;8.40;;
49834;SDS011;35729;52.090;13.162;2022-11-20T13:51:56;12.65;;;8.93;;
49834;SDS011;35729;52.090;13.162;2022-11-20T13:54:55;13.88;;;8.60;;
49834;SDS011;35729;52.090;13.162;2022-11-20T13:57:46;8.57;;;7.18;;
49834;SDS011;35729;52.090;13.162;2022-11-20T14:00:44;11.40;;;7.90;;
49834;SDS011;35729;52.090;13.162;2022-11-20T14:03:17;10.80;;;7.50;;
49834;SDS011;35729;52.090;13.162;2022-11-20T14:05:49;10.52;;;7.75;;
49834;SDS011;35729;52.090;13.162;2022-11-20T14:08:25;10.70;;;8.02;;
49834;SDS011;35729;52.090;13.162;2022-11-20T14:11:03;15.25;;;8.65;;
49834;SDS011;35729;52.090;13.162;2022-11-20T14:13:32;14.63;;;9.57;;
49834;SDS011;35729;52.090;13.162;2022-11-20T14:16:03;15.02;;;9.73;;
49834;SDS011;35729;52.090;13.162;2022-11-20T14:18:32;15.00;;;9.50;;
49834;SDS011;35729;52.090;13.162;2022-11-20T14:21:00;16.05;;;8.85;;
49834;SDS011;35729;52.090;13.162;2022-11-20T14:23:30;14.40;;;9.93;;
49834;SDS011;35729;52.090;13.162;2022-11-20T14:25:59;14.88;;;9.30;;
49834;SDS011;35729;52.090;13.162;2022-11-20T14:28:28;11.90;;;8.65;;
49834;SDS011;35729;52.090;13.162;2022-11-20T14:30:58;13.07;;;8.88;;
49834;SDS011;35729;52.090;13.162;2022-11-20T14:33:29;15.52;;;9.07;;
49834;SDS011;35729;52.090;13.162;2022-11-20T14:36:01;12.93;;;8.43;;
49834;SDS011;35729;52.090;13.162;2022-11-20T14:38:31;14.95;;;9.48;;
49834;SDS011;35729;52.090;13.162;2022-11-20T14:41:06;13.35;;;9.85;;
49834;SDS011;35729;52.090;13.162;2022-11-20T14:43:35;21.20;;;14.95;;
49834;SDS011;35729;52.090;13.162;2022-11-20T14:46:05;20.60;;;13.23;;